CheckWX is a tool to help pilots better visualize weather data.  It is not intended as a substitute for an official pre-flight weather briefing.

00:35:29 UTC

UAII METAR
Shymkent Airport
Shymkent, Kazakhstan
Current

35 mins ago

UAII 180000Z 15003MPS 2000 BR FU NSC 00/M02 Q1030 R28/0///70 NOSIG RMK QFE735/0980
Observed
Nov-18 @ 00:00 UTC
Wind
  • 150° at 6 KTS
Visibility
2,000 meters
Flight Rules
IFR
Conditions
Mist, Smoke
Cloud Levels
  • Clear skies
Temperature
C / 32°F
Dewpoint
-2°C / 28°F
Humidity
87%
Altimeter
30.41" Hg
Pressure
1029.92 hPa
Previous

1 hour ago

UAII 172330Z 16002MPS 2000 BR FU NSC 01/M01 Q1031 R28/0///70 NOSIG RMK QFE735/0980
Observed
Nov-17 @ 23:30 UTC
Wind
  • 160° at 4 KTS
Visibility
2,000 meters
Flight Rules
IFR
Conditions
Mist, Smoke
Cloud Levels
  • Clear skies
Temperature
C / 34°F
Dewpoint
-1°C / 30°F
Humidity
87%
Altimeter
30.44" Hg
Pressure
1030.92 hPa
Previous

2 hours ago

UAII 172300Z 15003MPS 2000 BR FU NSC 01/M02 Q1031 R28/0///70 NOSIG RMK QFE735/0980
Observed
Nov-17 @ 23:00 UTC
Wind
  • 150° at 6 KTS
Visibility
2,000 meters
Flight Rules
IFR
Conditions
Mist, Smoke
Cloud Levels
  • Clear skies
Temperature
C / 34°F
Dewpoint
-2°C / 28°F
Humidity
81%
Altimeter
30.44" Hg
Pressure
1030.92 hPa